SFE weather

San Fernando Airport
La Union Province, Philippines

Public forecast

Using degrees Celsius for public forecast. Weather courtesy of forecast.io.

Closest aviation weather report (METAR) to San Fernando Airport

Report is more than 6 hours old.

Closest report is Fort Magsaysay Airport, 83.2 nm (154.1 km) SSE. Retrieved 2019/06/27 01:00 UTC (11 months ago):

RPLV 270100Z 16006KT 5000 HZ SCT018 BKN300 28/25 Q1007 RMK A2974

Closest aviation forecast (TAF) to San Fernando Airport

Closest forecast is Diosdado Macapagal International Airport, 85.9 nm (159.1 km) S. Retrieved 2020/05/31 12:03 UTC (4 hours ago):

TAF RPLC 311100Z 3112/0118 27006KT 9999 SCT020 BKN300 TX35/0106Z TN26/3122Z TEMPO 3112/3118 34006KT 7000 -TSRA FEW015CB SCT020 BKN100